Time;durP1;ratioP1;P1;durP2;ratioP2;P2;SDS_P1;SDS_P2;PMS_P1;PMS_P2;Temp;Humidity;BMP_temperature;BMP_pressure;BME280_temperature;BME280_humidity;BME280_pressure;Samples;Min_cycle;Max_cycle;Signal;HPM_P1;HPM_P2
2023/11/05 00:00:40;;;;;;;;;;;15.40;89.90;;;;;;4058528;29;19934;-43
2023/11/05 00:03:20;;;;;;;;;;;15.40;89.80;;;;;;4058512;29;20022;-43
2023/11/05 00:06:01;;;;;;;;;;;15.40;89.80;;;;;;4058953;29;20370;-43
2023/11/05 00:08:42;;;;;;;;;;;15.30;89.60;;;;;;4052684;29;19939;-43
2023/11/05 00:11:24;;;;;;;;;;;15.40;89.70;;;;;;4042959;29;20375;-43
2023/11/05 00:14:04;;;;;;;;;;;15.30;89.70;;;;;;4043127;29;20298;-43
2023/11/05 00:16:45;;;;;;;;;;;15.30;89.70;;;;;;4043166;29;19990;-43
2023/11/05 00:19:25;;;;;;;;;;;15.30;89.90;;;;;;4042530;29;19982;-43
2023/11/05 00:22:06;;;;;;;;;;;15.30;89.90;;;;;;4044420;29;19934;-49
2023/11/05 00:24:47;;;;;;;;;;;15.30;90.00;;;;;;4042477;29;19937;-43
2023/11/05 00:27:29;;;;;;;;;;;15.30;90.00;;;;;;4043018;29;20344;-42
2023/11/05 00:30:10;;;;;;;;;;;15.30;90.10;;;;;;4042860;29;20086;-43
2023/11/05 00:32:50;;;;;;;;;;;15.30;90.00;;;;;;4039712;29;19996;-43
2023/11/05 00:35:31;;;;;;;;;;;15.30;90.10;;;;;;4047014;29;19942;-53
2023/11/05 00:38:12;;;;;;;;;;;15.30;90.30;;;;;;4058427;29;19950;-52
2023/11/05 00:40:53;;;;;;;;;;;15.30;90.40;;;;;;4038376;29;20004;-46
2023/11/05 00:43:35;;;;;;;;;;;15.30;90.40;;;;;;4053487;29;19934;-49
2023/11/05 00:46:17;;;;;;;;;;;15.20;90.50;;;;;;4058186;29;19938;-50
2023/11/05 00:48:58;;;;;;;;;;;15.20;90.50;;;;;;4002792;29;20059;-43
2023/11/05 00:51:39;;;;;;;;;;;15.20;90.60;;;;;;4058435;29;20025;-43
2023/11/05 00:54:19;;;;;;;;;;;15.20;90.60;;;;;;4058445;29;20275;-43
2023/11/05 00:57:00;;;;;;;;;;;15.20;90.60;;;;;;4046019;29;19950;-43
2023/11/05 00:59:42;;;;;;;;;;;15.20;90.60;;;;;;4056353;29;19934;-43
2023/11/05 01:02:23;;;;;;;;;;;15.20;90.60;;;;;;4046477;29;19934;-43
2023/11/05 01:05:04;;;;;;;;;;;15.20;90.60;;;;;;4056746;29;19937;-43
2023/11/05 01:07:45;;;;;;;;;;;15.20;90.70;;;;;;4057955;29;19938;-43
2023/11/05 01:10:26;;;;;;;;;;;15.20;90.70;;;;;;4046878;29;19993;-43
2023/11/05 01:13:06;;;;;;;;;;;15.20;90.80;;;;;;4058329;29;20017;-43
2023/11/05 01:15:48;;;;;;;;;;;15.20;90.80;;;;;;4058406;29;19990;-43
2023/11/05 01:18:29;;;;;;;;;;;15.20;90.80;;;;;;4046524;29;19938;-43
2023/11/05 01:21:12;;;;;;;;;;;15.20;90.80;;;;;;4057969;29;19934;-43
2023/11/05 01:23:53;;;;;;;;;;;15.20;90.90;;;;;;4042786;29;19938;-42
2023/11/05 01:26:33;;;;;;;;;;;15.20;90.90;;;;;;4030961;29;20111;-43
2023/11/05 01:29:14;;;;;;;;;;;15.10;90.90;;;;;;4042200;29;19998;-43
2023/11/05 01:31:57;;;;;;;;;;;15.10;90.90;;;;;;4042305;29;20327;-43
2023/11/05 01:34:38;;;;;;;;;;;15.10;90.90;;;;;;4042476;29;19937;-42
2023/11/05 01:37:18;;;;;;;;;;;15.10;90.90;;;;;;4042448;29;19997;-42
2023/11/05 01:39:59;;;;;;;;;;;15.10;91.00;;;;;;4030011;29;20074;-43
2023/11/05 01:42:40;;;;;;;;;;;15.10;91.00;;;;;;4045233;29;19954;-43
2023/11/05 01:45:22;;;;;;;;;;;15.10;91.00;;;;;;4045298;29;19935;-43
2023/11/05 01:48:04;;;;;;;;;;;15.10;91.00;;;;;;4031174;29;19986;-51
2023/11/05 01:50:44;;;;;;;;;;;15.10;91.50;;;;;;4033583;29;20071;-52
2023/11/05 01:53:26;;;;;;;;;;;15.10;91.10;;;;;;4023252;29;20469;-49
2023/11/05 01:56:08;;;;;;;;;;;15.10;91.10;;;;;;4045491;29;20055;-49
2023/11/05 01:58:49;;;;;;;;;;;15.10;91.50;;;;;;4048547;29;19938;-49
2023/11/05 02:01:30;;;;;;;;;;;15.10;91.10;;;;;;4049311;29;20291;-49
2023/11/05 02:04:11;;;;;;;;;;;15.10;91.20;;;;;;4049387;29;19938;-49
2023/11/05 02:06:52;;;;;;;;;;;15.10;91.20;;;;;;4049541;29;19934;-50
2023/11/05 02:09:34;;;;;;;;;;;15.10;91.30;;;;;;4047450;29;20402;-49
2023/11/05 02:12:16;;;;;;;;;;;15.10;91.30;;;;;;4036362;29;19954;-49
2023/11/05 02:14:57;;;;;;;;;;;15.10;91.30;;;;;;4048195;29;19997;-49
2023/11/05 02:17:38;;;;;;;;;;;15.10;91.30;;;;;;4060242;29;19954;-48
2023/11/05 02:20:21;;;;;;;;;;;15.10;91.30;;;;;;4059985;29;20390;-50
2023/11/05 02:23:03;;;;;;;;;;;15.10;91.30;;;;;;4034176;29;19939;-52
2023/11/05 02:25:46;;;;;;;;;;;15.10;91.30;;;;;;4034048;29;19934;-49
2023/11/05 02:28:27;;;;;;;;;;;15.00;91.40;;;;;;4033081;29;19938;-49
2023/11/05 02:31:07;;;;;;;;;;;15.00;91.40;;;;;;4043954;29;20386;-49
2023/11/05 02:33:48;;;;;;;;;;;15.00;91.60;;;;;;4044469;29;20016;-50
2023/11/05 02:36:29;;;;;;;;;;;15.00;91.50;;;;;;4044317;29;19943;-49
2023/11/05 02:39:11;;;;;;;;;;;15.00;91.50;;;;;;4044632;29;20009;-50
2023/11/05 02:41:53;;;;;;;;;;;15.00;91.50;;;;;;4039560;29;19963;-50
2023/11/05 02:44:34;;;;;;;;;;;15.00;91.50;;;;;;4058858;29;19934;-50
2023/11/05 02:47:15;;;;;;;;;;;15.00;91.50;;;;;;4048006;29;20075;-50
2023/11/05 02:49:55;;;;;;;;;;;15.00;91.50;;;;;;4048390;29;19934;-49
2023/11/05 02:52:37;;;;;;;;;;;15.00;91.50;;;;;;4045764;29;19954;-52
2023/11/05 02:55:17;;;;;;;;;;;15.00;91.60;;;;;;4044464;29;19938;-49
2023/11/05 02:58:00;;;;;;;;;;;15.00;91.60;;;;;;4044344;29;20019;-50
2023/11/05 03:00:40;;;;;;;;;;;15.00;91.60;;;;;;4045364;29;19942;-50
2023/11/05 03:03:21;;;;;;;;;;;15.00;91.60;;;;;;4032931;29;20475;-49
2023/11/05 03:06:02;;;;;;;;;;;15.00;91.60;;;;;;4044186;29;19973;-50
2023/11/05 03:08:43;;;;;;;;;;;15.00;91.60;;;;;;4032632;29;19938;-52
2023/11/05 03:11:24;;;;;;;;;;;15.00;91.60;;;;;;4035380;29;19934;-50
2023/11/05 03:14:06;;;;;;;;;;;15.00;92.00;;;;;;4059922;29;20278;-52
2023/11/05 03:16:47;;;;;;;;;;;15.00;91.70;;;;;;4058077;29;19934;-49
2023/11/05 03:19:28;;;;;;;;;;;15.00;91.70;;;;;;4037034;29;20397;-51
2023/11/05 03:22:09;;;;;;;;;;;15.00;91.70;;;;;;4058581;29;20086;-49
2023/11/05 03:24:49;;;;;;;;;;;15.00;91.70;;;;;;4047441;29;19981;-49
2023/11/05 03:27:30;;;;;;;;;;;15.00;91.70;;;;;;4059670;29;19934;-49
2023/11/05 03:30:13;;;;;;;;;;;15.00;92.10;;;;;;4059684;29;19938;-51
2023/11/05 03:32:54;;;;;;;;;;;15.00;91.70;;;;;;4045672;29;19938;-48
2023/11/05 03:35:35;;;;;;;;;;;15.00;91.80;;;;;;4058710;29;20420;-49
2023/11/05 03:38:15;;;;;;;;;;;14.90;92.20;;;;;;4046989;29;19937;-49
2023/11/05 03:40:56;;;;;;;;;;;15.00;91.80;;;;;;4055300;29;19938;-51
2023/11/05 03:43:37;;;;;;;;;;;15.00;91.80;;;;;;4043436;29;19938;-50
2023/11/05 03:46:19;;;;;;;;;;;15.10;91.70;;;;;;4042966;29;19939;-49
2023/11/05 03:49:00;;;;;;;;;;;15.10;92.00;;;;;;4043753;29;19954;-49
2023/11/05 03:51:41;;;;;;;;;;;15.20;91.60;;;;;;4040431;29;19935;-49
2023/11/05 03:54:22;;;;;;;;;;;15.20;91.50;;;;;;4058919;29;20297;-48
2023/11/05 03:57:03;;;;;;;;;;;15.30;91.50;;;;;;4057760;29;20503;-51
2023/11/05 03:59:44;;;;;;;;;;;15.30;91.50;;;;;;4059253;29;19978;-47
2023/11/05 04:02:26;;;;;;;;;;;15.30;91.40;;;;;;4047901;29;19934;-47
2023/11/05 04:05:07;;;;;;;;;;;15.30;91.30;;;;;;4059420;29;19938;-49
2023/11/05 04:07:49;;;;;;;;;;;15.40;91.30;;;;;;4057255;29;19950;-49
2023/11/05 04:10:30;;;;;;;;;;;15.40;91.30;;;;;;4058066;29;19938;-52
2023/11/05 04:13:13;;;;;;;;;;;15.40;91.20;;;;;;4058879;29;19934;-55
2023/11/05 04:15:53;;;;;;;;;;;15.40;91.20;;;;;;4043303;29;19935;-54
2023/11/05 04:18:35;;;;;;;;;;;15.50;91.20;;;;;;4043176;29;20720;-53
2023/11/05 04:21:16;;;;;;;;;;;15.50;91.60;;;;;;4031241;29;20511;-54
2023/11/05 04:23:57;;;;;;;;;;;15.50;91.20;;;;;;4044275;29;19938;-51
2023/11/05 04:26:37;;;;;;;;;;;15.50;91.10;;;;;;4042964;29;19938;-58
2023/11/05 04:29:18;;;;;;;;;;;15.50;91.00;;;;;;4042787;29;19998;-48
2023/11/05 04:31:59;;;;;;;;;;;15.60;91.00;;;;;;4058564;29;19935;-54
2023/11/05 04:34:42;;;;;;;;;;;15.60;91.00;;;;;;4058754;29;19993;-52
2023/11/05 04:37:22;;;;;;;;;;;15.60;91.00;;;;;;4058909;29;20029;-53
2023/11/05 04:40:06;;;;;;;;;;;15.60;91.00;;;;;;4056800;29;19990;-52
2023/11/05 04:42:46;;;;;;;;;;;15.60;91.00;;;;;;4058655;29;19934;-52
2023/11/05 04:45:27;;;;;;;;;;;15.60;91.40;;;;;;4058427;29;19938;-53
2023/11/05 04:48:07;;;;;;;;;;;15.60;90.90;;;;;;4058670;29;19935;-52
2023/11/05 04:50:49;;;;;;;;;;;15.70;90.90;;;;;;4042973;29;20299;-53
2023/11/05 04:53:31;;;;;;;;;;;15.70;90.80;;;;;;4042727;29;19979;-53
2023/11/05 04:56:15;;;;;;;;;;;15.70;90.80;;;;;;4042780;29;19935;-53
2023/11/05 04:58:56;;;;;;;;;;;15.70;90.70;;;;;;4042922;29;20081;-56
2023/11/05 05:01:36;;;;;;;;;;;15.70;90.70;;;;;;4042594;29;20287;-53
2023/11/05 05:04:17;;;;;;;;;;;15.70;90.70;;;;;;4031485;29;19938;-56
2023/11/05 05:06:59;;;;;;;;;;;15.70;90.70;;;;;;4042367;29;19934;-52
2023/11/05 05:09:40;;;;;;;;;;;15.70;90.60;;;;;;4042844;29;19937;-53
2023/11/05 05:12:21;;;;;;;;;;;15.70;90.70;;;;;;4043185;29;19935;-48
2023/11/05 05:15:05;;;;;;;;;;;15.70;90.70;;;;;;4043634;29;19959;-49
2023/11/05 05:17:47;;;;;;;;;;;15.70;90.70;;;;;;4033794;29;19935;-52
2023/11/05 05:20:28;;;;;;;;;;;15.70;90.80;;;;;;4059796;29;20047;-52
2023/11/05 05:23:09;;;;;;;;;;;15.60;90.80;;;;;;4061550;29;20390;-50
2023/11/05 05:25:50;;;;;;;;;;;15.60;90.70;;;;;;4061389;29;19938;-48
2023/11/05 05:28:31;;;;;;;;;;;15.60;90.80;;;;;;4055614;29;20067;-50
2023/11/05 05:31:12;;;;;;;;;;;15.70;90.80;;;;;;4046020;29;19938;-49
2023/11/05 05:33:52;;;;;;;;;;;15.70;90.70;;;;;;4034669;29;19935;-50
2023/11/05 05:36:33;;;;;;;;;;;15.70;90.70;;;;;;4045667;29;20311;-50
2023/11/05 05:39:15;;;;;;;;;;;15.80;90.70;;;;;;4046099;29;19935;-48
2023/11/05 05:41:55;;;;;;;;;;;15.70;90.70;;;;;;4034322;29;20339;-53
2023/11/05 05:44:36;;;;;;;;;;;15.70;90.70;;;;;;4046227;29;20076;-52
2023/11/05 05:47:17;;;;;;;;;;;15.70;90.60;;;;;;4046485;29;19999;-52
2023/11/05 05:49:57;;;;;;;;;;;15.70;90.70;;;;;;4046864;29;19994;-53
2023/11/05 05:52:38;;;;;;;;;;;15.70;90.70;;;;;;4051402;29;20480;-55
2023/11/05 05:55:21;;;;;;;;;;;15.70;90.80;;;;;;4061025;29;19938;-52
2023/11/05 05:58:03;;;;;;;;;;;15.60;90.70;;;;;;4060726;29;20693;-54
2023/11/05 06:00:45;;;;;;;;;;;15.60;91.20;;;;;;4060247;29;19934;-52
2023/11/05 06:03:26;;;;;;;;;;;15.60;90.90;;;;;;4061700;29;19934;-52
2023/11/05 06:06:07;;;;;;;;;;;15.60;90.90;;;;;;4058824;29;19995;-54
2023/11/05 06:08:47;;;;;;;;;;;15.60;91.00;;;;;;4045215;29;19934;-53
2023/11/05 06:11:29;;;;;;;;;;;15.70;90.90;;;;;;4045740;29;21083;-51
2023/11/05 06:14:10;;;;;;;;;;;15.60;90.90;;;;;;4045382;29;19978;-54
2023/11/05 06:16:50;;;;;;;;;;;15.70;90.80;;;;;;4045306;29;19939;-55
2023/11/05 06:19:31;;;;;;;;;;;15.70;90.80;;;;;;4033055;29;20386;-53
2023/11/05 06:22:12;;;;;;;;;;;15.70;90.80;;;;;;4056010;29;19934;-56
2023/11/05 06:24:52;;;;;;;;;;;15.70;90.80;;;;;;4059791;29;20306;-56
2023/11/05 06:27:34;;;;;;;;;;;15.70;91.20;;;;;;4060207;29;19938;-54
2023/11/05 06:30:15;;;;;;;;;;;15.70;90.80;;;;;;4060478;29;19938;-55
2023/11/05 06:32:56;;;;;;;;;;;15.70;90.70;;;;;;4056348;29;19978;-54
2023/11/05 06:35:37;;;;;;;;;;;15.80;90.70;;;;;;4060743;29;19997;-56
2023/11/05 06:38:17;;;;;;;;;;;15.80;90.80;;;;;;4059274;29;20327;-53
2023/11/05 06:40:58;;;;;;;;;;;15.80;90.70;;;;;;4060739;29;19934;-55
2023/11/05 06:43:41;;;;;;;;;;;15.80;90.70;;;;;;4059608;29;20018;-56
2023/11/05 06:46:21;;;;;;;;;;;15.90;90.60;;;;;;4060513;29;19950;-55
2023/11/05 06:49:02;;;;;;;;;;;15.90;90.60;;;;;;4060382;29;19953;-56
2023/11/05 06:51:43;;;;;;;;;;;16.00;90.50;;;;;;4050985;29;19939;-53
2023/11/05 06:54:24;;;;;;;;;;;16.00;90.50;;;;;;4054388;29;19982;-56
2023/11/05 06:57:04;;;;;;;;;;;16.00;90.40;;;;;;4045047;29;19978;-56
2023/11/05 06:59:46;;;;;;;;;;;16.00;90.30;;;;;;4044777;29;20051;-48
2023/11/05 07:02:27;;;;;;;;;;;16.10;90.30;;;;;;4045224;29;20060;-53
2023/11/05 07:05:09;;;;;;;;;;;16.10;90.20;;;;;;4044150;29;19934;-52
2023/11/05 07:07:50;;;;;;;;;;;16.10;90.60;;;;;;4044797;29;19934;-54
2023/11/05 07:10:31;;;;;;;;;;;16.10;90.50;;;;;;4046106;29;19955;-54
2023/11/05 07:13:12;;;;;;;;;;;16.10;90.20;;;;;;4044758;29;19934;-55
2023/11/05 07:15:54;;;;;;;;;;;16.00;90.20;;;;;;4044762;29;19939;-54
2023/11/05 07:18:35;;;;;;;;;;;16.00;90.70;;;;;;4058614;29;19938;-55
2023/11/05 07:21:16;;;;;;;;;;;16.00;90.40;;;;;;4059254;29;19938;-57
2023/11/05 07:23:57;;;;;;;;;;;16.10;90.30;;;;;;4060072;29;20401;-52
2023/11/05 07:26:37;;;;;;;;;;;16.10;90.30;;;;;;4058794;29;19938;-56
2023/11/05 07:29:18;;;;;;;;;;;16.10;90.20;;;;;;4058064;29;19938;-52
2023/11/05 07:32:00;;;;;;;;;;;16.10;90.10;;;;;;4050957;29;20062;-53
2023/11/05 07:34:41;;;;;;;;;;;16.10;90.10;;;;;;4059878;29;19952;-48
2023/11/05 07:37:22;;;;;;;;;;;16.10;90.10;;;;;;4059943;29;19934;-49
2023/11/05 07:40:05;;;;;;;;;;;16.20;90.30;;;;;;4058887;29;19935;-52
2023/11/05 07:42:45;;;;;;;;;;;16.20;90.40;;;;;;4043844;29;19938;-48
2023/11/05 07:45:26;;;;;;;;;;;16.20;90.40;;;;;;4043952;29;20484;-49
2023/11/05 07:48:08;;;;;;;;;;;16.20;90.40;;;;;;4045044;29;19938;-49
2023/11/05 07:50:50;;;;;;;;;;;16.20;90.60;;;;;;4044129;29;19974;-51
2023/11/05 07:53:31;;;;;;;;;;;16.20;90.70;;;;;;4042990;29;20071;-47
2023/11/05 07:56:12;;;;;;;;;;;16.20;90.80;;;;;;4043932;29;20278;-50
2023/11/05 07:58:52;;;;;;;;;;;16.30;90.90;;;;;;4043909;29;20291;-47
2023/11/05 08:01:33;;;;;;;;;;;16.20;91.00;;;;;;4032318;29;19982;-48
2023/11/05 08:04:16;;;;;;;;;;;16.20;91.20;;;;;;4044495;29;20613;-46
2023/11/05 08:06:57;;;;;;;;;;;16.20;91.30;;;;;;4050852;29;20492;-47
2023/11/05 08:09:37;;;;;;;;;;;16.20;91.90;;;;;;4053287;29;19934;-48
2023/11/05 08:12:18;;;;;;;;;;;16.20;91.60;;;;;;4059210;29;19954;-48
2023/11/05 08:14:58;;;;;;;;;;;16.20;91.60;;;;;;4043575;29;19935;-47
2023/11/05 08:17:39;;;;;;;;;;;16.20;91.50;;;;;;4044145;29;19934;-51
2023/11/05 08:20:22;;;;;;;;;;;16.20;91.50;;;;;;4043109;29;20302;-48
2023/11/05 08:23:02;;;;;;;;;;;16.20;91.50;;;;;;4053376;29;19938;-52
2023/11/05 08:25:43;;;;;;;;;;;16.20;91.40;;;;;;4043234;29;20386;-53
2023/11/05 08:28:24;;;;;;;;;;;16.20;91.30;;;;;;4043554;29;19935;-52
2023/11/05 08:31:09;;;;;;;;;;;16.20;91.30;;;;;;4043030;29;19935;-53
2023/11/05 08:33:50;;;;;;;;;;;16.20;91.30;;;;;;4031505;29;19934;-51
2023/11/05 08:36:33;;;;;;;;;;;16.30;91.30;;;;;;4043073;29;19979;-50
2023/11/05 08:39:19;;;;;;;;;;;16.20;91.20;;;;;;4056216;29;19933;-48
2023/11/05 08:41:59;;;;;;;;;;;16.20;91.10;;;;;;4042811;29;19936;-50
2023/11/05 08:44:40;;;;;;;;;;;16.20;91.20;;;;;;4062286;29;19938;-49
2023/11/05 08:47:21;;;;;;;;;;;16.20;91.60;;;;;;4074853;29;20090;-47
2023/11/05 08:50:02;;;;;;;;;;;16.20;91.40;;;;;;4058583;29;20010;-46
2023/11/05 08:52:45;;;;;;;;;;;16.10;91.40;;;;;;4060447;29;19950;-47
2023/11/05 08:55:28;;;;;;;;;;;16.00;91.50;;;;;;4044341;29;19938;-48
2023/11/05 08:58:09;;;;;;;;;;;16.00;91.60;;;;;;4048312;29;19938;-49
2023/11/05 09:00:55;;;;;;;;;;;16.00;91.70;;;;;;4046786;29;19935;-48
2023/11/05 09:03:37;;;;;;;;;;;15.90;92.20;;;;;;4054087;29;19934;-48
2023/11/05 09:06:18;;;;;;;;;;;15.90;92.00;;;;;;4035088;29;19938;-49
2023/11/05 09:09:01;;;;;;;;;;;15.80;92.40;;;;;;4046793;29;20080;-50
2023/11/05 09:11:41;;;;;;;;;;;15.80;92.20;;;;;;4045882;29;19934;-48
2023/11/05 09:14:22;;;;;;;;;;;15.70;92.20;;;;;;4062783;29;20409;-48
2023/11/05 09:17:03;;;;;;;;;;;15.70;92.30;;;;;;4045303;29;19973;-48
2023/11/05 09:19:44;;;;;;;;;;;15.70;92.30;;;;;;4061310;29;19934;-48
2023/11/05 09:22:25;;;;;;;;;;;15.70;92.40;;;;;;4060618;29;19934;-51
2023/11/05 09:25:07;;;;;;;;;;;15.60;92.20;;;;;;4060584;29;20389;-52
2023/11/05 09:27:49;;;;;;;;;;;15.60;92.10;;;;;;4060775;29;19934;-53
2023/11/05 09:30:29;;;;;;;;;;;15.60;92.10;;;;;;4046627;29;20059;-49
2023/11/05 09:33:10;;;;;;;;;;;15.60;92.00;;;;;;4050929;29;19934;-51
2023/11/05 09:35:51;;;;;;;;;;;15.60;92.20;;;;;;4045664;29;19939;-52
2023/11/05 09:38:33;;;;;;;;;;;15.80;92.20;;;;;;4045562;29;19934;-52
2023/11/05 09:41:17;;;;;;;;;;;16.00;91.70;;;;;;4045365;29;20411;-49
2023/11/05 09:43:59;;;;;;;;;;;16.40;91.10;;;;;;4045613;29;19950;-53
2023/11/05 09:46:41;;;;;;;;;;;16.80;90.30;;;;;;4036402;29;19938;-49
2023/11/05 09:49:21;;;;;;;;;;;17.10;88.90;;;;;;4060891;29;19969;-47
2023/11/05 09:52:02;;;;;;;;;;;17.50;87.20;;;;;;4055355;29;20372;-49
2023/11/05 09:54:43;;;;;;;;;;;17.80;85.20;;;;;;4058462;29;20411;-48
2023/11/05 09:57:25;;;;;;;;;;;18.10;84.00;;;;;;4048362;29;19961;-49
2023/11/05 10:00:09;;;;;;;;;;;18.40;82.80;;;;;;4060846;29;19934;-48
2023/11/05 10:02:53;;;;;;;;;;;18.60;82.10;;;;;;4059413;29;19985;-48
2023/11/05 10:05:34;;;;;;;;;;;18.70;81.10;;;;;;4061065;29;20399;-50
2023/11/05 10:08:15;;;;;;;;;;;18.70;80.50;;;;;;4060623;29;19937;-48
2023/11/05 10:10:57;;;;;;;;;;;18.70;80.20;;;;;;4053684;29;19968;-49
2023/11/05 10:13:39;;;;;;;;;;;18.70;80.10;;;;;;4045030;29;19953;-49
2023/11/05 10:16:20;;;;;;;;;;;18.60;80.10;;;;;;4045195;29;19935;-48
2023/11/05 10:19:01;;;;;;;;;;;18.60;80.70;;;;;;4046208;29;20072;-54
2023/11/05 10:21:42;;;;;;;;;;;18.70;79.70;;;;;;4060475;29;19951;-56
2023/11/05 10:24:39;;;;;;;;;;;18.70;79.20;;;;;;4060296;29;20382;-57
2023/11/05 10:27:27;;;;;;;;;;;18.70;78.90;;;;;;4049932;29;20287;-57
2023/11/05 10:30:10;;;;;;;;;;;18.70;78.60;;;;;;4044522;29;19938;-56
2023/11/05 10:32:52;;;;;;;;;;;18.70;78.50;;;;;;4044760;29;19942;-56
2023/11/05 10:35:34;;;;;;;;;;;18.60;78.70;;;;;;4044449;29;19954;-56
2023/11/05 10:38:16;;;;;;;;;;;18.60;79.00;;;;;;4044161;29;19935;-54
2023/11/05 10:40:59;;;;;;;;;;;18.50;79.60;;;;;;4053175;29;19978;-57
2023/11/05 10:43:40;;;;;;;;;;;18.40;79.40;;;;;;4058984;29;19950;-56
2023/11/05 10:46:22;;;;;;;;;;;18.30;79.70;;;;;;4057375;29;19948;-56
2023/11/05 10:49:03;;;;;;;;;;;18.30;80.70;;;;;;4044738;29;19938;-55
2023/11/05 10:51:44;;;;;;;;;;;18.40;79.70;;;;;;4044741;29;20060;-58
2023/11/05 10:54:25;;;;;;;;;;;18.40;79.70;;;;;;4044509;29;19934;-56
2023/11/05 10:57:21;;;;;;;;;;;18.40;79.60;;;;;;4045608;29;19938;-55
2023/11/05 11:00:03;;;;;;;;;;;18.40;79.40;;;;;;4042141;29;19938;-52
2023/11/05 11:02:45;;;;;;;;;;;18.40;79.30;;;;;;4059335;29;19933;-51
2023/11/05 11:05:46;;;;;;;;;;;18.40;79.30;;;;;;4059894;29;19938;-53
2023/11/05 11:08:29;;;;;;;;;;;18.30;79.40;;;;;;4057357;29;21155;-50
2023/11/05 11:11:14;;;;;;;;;;;18.20;80.70;;;;;;4043997;29;19938;-48
2023/11/05 11:13:56;;;;;;;;;;;18.10;79.90;;;;;;4043118;29;19938;-49
2023/11/05 11:16:39;;;;;;;;;;;18.00;81.10;;;;;;4043509;29;19987;-52
2023/11/05 11:19:22;;;;;;;;;;;18.00;80.30;;;;;;4055264;29;20145;-50
2023/11/05 11:22:06;;;;;;;;;;;18.10;80.30;;;;;;4056575;29;19961;-50
2023/11/05 11:24:47;;;;;;;;;;;18.10;80.10;;;;;;4059323;29;19966;-50
2023/11/05 11:27:28;;;;;;;;;;;18.20;79.80;;;;;;4044335;29;20015;-49
2023/11/05 11:30:10;;;;;;;;;;;18.30;79.70;;;;;;4058950;29;19948;-55
2023/11/05 11:32:52;;;;;;;;;;;18.40;79.40;;;;;;4058600;29;19934;-51
2023/11/05 11:35:37;;;;;;;;;;;18.40;79.10;;;;;;4059306;29;19938;-48
2023/11/05 11:38:18;;;;;;;;;;;18.50;78.90;;;;;;4059758;29;19986;-52
2023/11/05 11:40:59;;;;;;;;;;;18.50;78.70;;;;;;4059471;29;20297;-49
2023/11/05 11:43:40;;;;;;;;;;;18.60;78.70;;;;;;4045633;29;19934;-50
2023/11/05 11:46:22;;;;;;;;;;;18.60;78.60;;;;;;4044187;29;19937;-49
2023/11/05 11:49:10;;;;;;;;;;;18.60;78.50;;;;;;4053206;29;20610;-48
2023/11/05 11:51:52;;;;;;;;;;;18.60;79.20;;;;;;4059127;29;19958;-52
2023/11/05 11:54:33;;;;;;;;;;;18.70;78.00;;;;;;4058442;29;20015;-52
2023/11/05 11:57:16;;;;;;;;;;;18.70;77.90;;;;;;4059553;29;19935;-48
2023/11/05 11:59:56;;;;;;;;;;;18.70;77.90;;;;;;4059149;29;19938;-50
2023/11/05 12:02:37;;;;;;;;;;;18.70;78.00;;;;;;4051302;29;20481;-49
2023/11/05 12:05:19;;;;;;;;;;;18.60;77.90;;;;;;4043555;29;19986;-49
2023/11/05 12:08:01;;;;;;;;;;;18.60;77.90;;;;;;4045684;29;19978;-48
2023/11/05 12:10:42;;;;;;;;;;;18.50;77.90;;;;;;4043810;29;20026;-48
2023/11/05 12:13:23;;;;;;;;;;;18.50;78.00;;;;;;4043733;29;19979;-52
2023/11/05 12:16:05;;;;;;;;;;;18.40;78.40;;;;;;4047932;29;19933;-53
2023/11/05 12:18:46;;;;;;;;;;;18.40;78.50;;;;;;4058213;29;19966;-50
2023/11/05 12:21:27;;;;;;;;;;;18.40;78.60;;;;;;4046586;29;20035;-57
2023/11/05 12:24:11;;;;;;;;;;;18.30;78.80;;;;;;4058925;29;19934;-56
2023/11/05 12:26:51;;;;;;;;;;;18.30;79.00;;;;;;4051406;29;19950;-56
2023/11/05 12:29:32;;;;;;;;;;;18.30;78.90;;;;;;4043212;29;19986;-57
2023/11/05 12:32:13;;;;;;;;;;;18.30;78.70;;;;;;4044096;29;19935;-56
2023/11/05 12:34:53;;;;;;;;;;;18.30;78.70;;;;;;4043598;29;19982;-57
2023/11/05 12:37:34;;;;;;;;;;;18.30;78.90;;;;;;4049885;29;19942;-56
2023/11/05 12:40:16;;;;;;;;;;;18.30;79.30;;;;;;4058974;29;19934;-51
2023/11/05 12:42:57;;;;;;;;;;;18.30;79.70;;;;;;4058885;29;19953;-48
2023/11/05 12:45:38;;;;;;;;;;;18.30;79.90;;;;;;4056484;29;19934;-53
2023/11/05 12:48:20;;;;;;;;;;;18.30;80.00;;;;;;4021066;29;20390;-50
2023/11/05 12:51:09;;;;;;;;;;;18.40;79.90;;;;;;4058722;29;19985;-52
2023/11/05 12:53:49;;;;;;;;;;;18.40;79.40;;;;;;4042702;29;20406;-54
2023/11/05 12:56:31;;;;;;;;;;;18.40;79.60;;;;;;4058585;29;19933;-52
2023/11/05 12:59:13;;;;;;;;;;;18.40;79.90;;;;;;4066210;29;20058;-52
2023/11/05 13:01:54;;;;;;;;;;;18.40;79.20;;;;;;4058518;29;19986;-49
2023/11/05 13:04:40;;;;;;;;;;;18.50;79.10;;;;;;4055436;29;20426;-51
2023/11/05 13:07:21;;;;;;;;;;;18.50;79.00;;;;;;4058441;29;20390;-50
2023/11/05 13:10:04;;;;;;;;;;;18.50;79.20;;;;;;4058644;29;19938;-51
2023/11/05 13:12:47;;;;;;;;;;;18.50;79.30;;;;;;4058585;29;19966;-53
2023/11/05 13:15:28;;;;;;;;;;;18.60;79.20;;;;;;4060306;29;19933;-54
2023/11/05 13:18:13;;;;;;;;;;;18.60;79.10;;;;;;4043217;29;20323;-50
2023/11/05 13:20:54;;;;;;;;;;;18.60;79.30;;;;;;4043035;29;19986;-50
2023/11/05 13:23:35;;;;;;;;;;;18.60;79.20;;;;;;4043060;29;19938;-50
2023/11/05 13:26:16;;;;;;;;;;;18.70;80.00;;;;;;4042494;29;19978;-49
2023/11/05 13:28:59;;;;;;;;;;;18.70;78.80;;;;;;4052135;29;20360;-51
2023/11/05 13:31:40;;;;;;;;;;;18.70;78.70;;;;;;4048913;29;19934;-52
2023/11/05 13:34:21;;;;;;;;;;;18.70;79.50;;;;;;4042576;29;19935;-49
2023/11/05 13:37:01;;;;;;;;;;;18.80;78.60;;;;;;4045104;29;19954;-49
2023/11/05 13:39:42;;;;;;;;;;;18.80;78.40;;;;;;4045742;29;19961;-48
2023/11/05 13:42:22;;;;;;;;;;;18.80;79.00;;;;;;4051550;29;19970;-49
2023/11/05 13:45:05;;;;;;;;;;;18.80;78.10;;;;;;4053558;29;20398;-50
2023/11/05 13:47:46;;;;;;;;;;;18.80;78.10;;;;;;4046427;29;19950;-52
2023/11/05 13:50:27;;;;;;;;;;;18.80;77.80;;;;;;4045909;29;19939;-56
2023/11/05 13:53:08;;;;;;;;;;;18.70;77.90;;;;;;4056441;29;19938;-49
2023/11/05 13:55:49;;;;;;;;;;;18.70;77.90;;;;;;4060659;29;19934;-49
2023/11/05 13:58:30;;;;;;;;;;;18.70;77.90;;;;;;4047141;29;19934;-51
2023/11/05 14:01:17;;;;;;;;;;;18.60;77.90;;;;;;4060293;29;19934;-48
2023/11/05 14:03:57;;;;;;;;;;;18.60;78.00;;;;;;4061032;29;20106;-53
2023/11/05 14:06:38;;;;;;;;;;;18.50;78.00;;;;;;4049392;29;19935;-49
2023/11/05 14:09:18;;;;;;;;;;;18.40;78.20;;;;;;4058945;29;19938;-52
2023/11/05 14:12:03;;;;;;;;;;;18.40;78.40;;;;;;4060031;29;19975;-50
2023/11/05 14:14:44;;;;;;;;;;;18.40;78.30;;;;;;4036248;29;20394;-52
2023/11/05 14:17:27;;;;;;;;;;;18.40;78.20;;;;;;4048240;29;20283;-51
2023/11/05 14:20:09;;;;;;;;;;;18.40;78.10;;;;;;4044104;29;19935;-51
2023/11/05 14:22:51;;;;;;;;;;;18.40;78.90;;;;;;4052603;29;19934;-52
2023/11/05 14:25:32;;;;;;;;;;;18.30;77.80;;;;;;4058154;29;19938;-50
2023/11/05 14:28:12;;;;;;;;;;;18.30;78.70;;;;;;4050456;29;19934;-52
2023/11/05 14:30:54;;;;;;;;;;;18.20;78.00;;;;;;4058314;29;19934;-48
2023/11/05 14:33:37;;;;;;;;;;;18.20;78.20;;;;;;4065248;29;19934;-48
2023/11/05 14:36:18;;;;;;;;;;;18.20;78.50;;;;;;4060512;29;20259;-50
2023/11/05 14:38:58;;;;;;;;;;;18.10;78.70;;;;;;4060850;29;19938;-51
2023/11/05 14:41:39;;;;;;;;;;;18.10;78.80;;;;;;4059953;29;19943;-52
2023/11/05 14:44:20;;;;;;;;;;;18.10;79.10;;;;;;4055857;29;19966;-49
2023/11/05 14:47:00;;;;;;;;;;;18.10;80.20;;;;;;4059518;29;20263;-51
2023/11/05 14:49:42;;;;;;;;;;;18.10;79.40;;;;;;4048330;29;19938;-53
2023/11/05 14:52:23;;;;;;;;;;;18.10;79.50;;;;;;4048873;29;19935;-51
2023/11/05 14:55:04;;;;;;;;;;;18.00;80.40;;;;;;4043799;29;19954;-49
2023/11/05 14:57:45;;;;;;;;;;;18.00;79.70;;;;;;4040410;29;19954;-50
2023/11/05 15:00:27;;;;;;;;;;;18.00;79.70;;;;;;4033648;29;19942;-51
2023/11/05 15:03:08;;;;;;;;;;;18.00;79.90;;;;;;4045229;29;20500;-48
2023/11/05 15:05:50;;;;;;;;;;;18.00;80.00;;;;;;4043749;29;19957;-49
2023/11/05 15:08:31;;;;;;;;;;;17.90;79.80;;;;;;4053171;29;19938;-50
2023/11/05 15:11:14;;;;;;;;;;;17.90;80.70;;;;;;4051512;29;19938;-49
2023/11/05 15:13:55;;;;;;;;;;;17.80;79.90;;;;;;4050916;29;19951;-51
2023/11/05 15:16:36;;;;;;;;;;;17.80;80.20;;;;;;4036290;29;20280;-48
2023/11/05 15:19:16;;;;;;;;;;;17.70;81.20;;;;;;4032373;29;19938;-54
2023/11/05 15:21:59;;;;;;;;;;;17.70;80.60;;;;;;4044491;29;19934;-50
2023/11/05 15:24:39;;;;;;;;;;;17.70;80.60;;;;;;4044043;29;19938;-54
2023/11/05 15:27:21;;;;;;;;;;;17.60;80.50;;;;;;4046176;29;20393;-54
2023/11/05 15:30:04;;;;;;;;;;;17.60;80.80;;;;;;4052459;29;19934;-52
2023/11/05 15:32:49;;;;;;;;;;;17.50;80.90;;;;;;4043890;29;20556;-49
2023/11/05 15:35:29;;;;;;;;;;;17.50;81.10;;;;;;4036327;29;19981;-56
2023/11/05 15:38:12;;;;;;;;;;;17.50;81.50;;;;;;4058798;29;19934;-57